createdAt,value
2023-04-19T00:01:15.206Z,12.50
2023-04-19T00:03:43.493Z,12.50
2023-04-19T00:06:14.525Z,12.50
2023-04-19T00:08:43.928Z,12.50
2023-04-19T00:11:13.669Z,12.40
2023-04-19T00:13:42.908Z,12.40
2023-04-19T00:16:11.014Z,12.40
2023-04-19T00:18:43.078Z,12.40
2023-04-19T00:21:11.730Z,12.40
2023-04-19T00:23:41.448Z,12.40
2023-04-19T00:26:11.580Z,12.30
2023-04-19T00:28:42.504Z,12.40
2023-04-19T00:31:12.053Z,12.30
2023-04-19T00:33:40.051Z,12.30
2023-04-19T00:36:08.546Z,12.30
2023-04-19T00:38:36.999Z,12.30
2023-04-19T00:41:05.664Z,12.20
2023-04-19T00:43:36.960Z,12.20
2023-04-19T00:46:29.336Z,12.20
2023-04-19T00:48:57.923Z,12.20
2023-04-19T00:51:28.337Z,12.20
2023-04-19T00:53:57.493Z,12.20
2023-04-19T00:56:29.927Z,12.10
2023-04-19T00:58:58.081Z,12.20
2023-04-19T01:01:27.820Z,12.20
2023-04-19T01:03:56.365Z,12.10
2023-04-19T01:06:27.899Z,12.10
2023-04-19T01:08:56.012Z,12.10
2023-04-19T01:11:25.572Z,12.10
2023-04-19T01:13:53.947Z,12.10
2023-04-19T01:16:45.989Z,12.10
2023-04-19T01:19:14.050Z,12.10
2023-04-19T01:21:44.360Z,12.10
2023-04-19T01:24:14.945Z,12.10
2023-04-19T01:26:43.652Z,12.00
2023-04-19T01:29:14.108Z,12.00
2023-04-19T01:31:42.365Z,12.00
2023-04-19T01:34:35.930Z,12.00
2023-04-19T01:37:04.196Z,12.00
2023-04-19T01:39:33.632Z,12.00
2023-04-19T01:42:04.385Z,12.00
2023-04-19T01:44:32.910Z,12.00
2023-04-19T01:47:03.148Z,12.00
2023-04-19T01:49:31.464Z,12.00
2023-04-19T01:52:03.493Z,11.90
2023-04-19T01:54:34.666Z,11.90
2023-04-19T01:57:07.319Z,12.00
2023-04-19T01:59:35.982Z,11.90
2023-04-19T02:02:24.719Z,11.90
2023-04-19T02:04:53.126Z,11.90
2023-04-19T02:07:30.808Z,11.80
2023-04-19T02:10:00.920Z,11.80
2023-04-19T02:12:30.623Z,11.80
2023-04-19T02:14:59.635Z,11.80
2023-04-19T02:17:30.650Z,11.80
2023-04-19T02:20:00.114Z,11.80
2023-04-19T02:22:28.696Z,11.70
2023-04-19T02:24:59.210Z,11.70
2023-04-19T02:27:28.867Z,11.70
2023-04-19T02:29:57.490Z,11.70
2023-04-19T02:32:29.143Z,11.70
2023-04-19T02:34:57.760Z,11.70
2023-04-19T02:37:26.265Z,11.70
2023-04-19T02:39:54.475Z,11.60
2023-04-19T02:42:23.970Z,11.60
2023-04-19T02:44:54.674Z,11.50
2023-04-19T02:47:22.624Z,11.60
2023-04-19T02:49:52.390Z,11.50
2023-04-19T02:52:20.540Z,11.50
2023-04-19T02:54:51.721Z,11.50
2023-04-19T02:57:20.784Z,11.60
2023-04-19T02:59:48.870Z,11.50
2023-04-19T03:02:18.777Z,11.60
2023-04-19T03:04:50.050Z,11.50
2023-04-19T03:07:18.194Z,11.60
2023-04-19T03:09:46.806Z,11.60
2023-04-19T03:12:15.654Z,11.50
2023-04-19T03:15:04.186Z,11.60
2023-04-19T03:17:37.008Z,11.60
2023-04-19T03:20:12.254Z,11.60
2023-04-19T03:22:42.167Z,11.60
2023-04-19T03:25:13.418Z,11.60
2023-04-19T03:27:55.563Z,11.70
2023-04-19T03:30:25.243Z,11.70
2023-04-19T03:32:58.728Z,11.70
2023-04-19T03:35:29.301Z,11.60
2023-04-19T03:37:57.385Z,11.70
2023-04-19T03:40:25.717Z,11.70
2023-04-19T03:42:56.760Z,11.70
2023-04-19T03:45:25.142Z,11.70
2023-04-19T03:47:54.808Z,11.80
2023-04-19T03:50:26.239Z,11.70
2023-04-19T03:52:55.034Z,11.70
2023-04-19T03:55:23.451Z,11.70
2023-04-19T03:57:51.792Z,11.70
2023-04-19T04:00:22.556Z,11.70
2023-04-19T04:02:50.797Z,11.80
2023-04-19T04:05:20.817Z,11.80
2023-04-19T04:07:49.084Z,11.80
2023-04-19T04:10:19.470Z,11.80
2023-04-19T04:12:47.477Z,11.80
2023-04-19T04:15:35.716Z,11.80
2023-04-19T04:18:08.552Z,11.80
2023-04-19T04:20:39.654Z,11.80
2023-04-19T04:23:13.905Z,11.90
2023-04-19T04:26:03.696Z,11.90
2023-04-19T04:28:32.434Z,11.90
2023-04-19T04:31:26.108Z,11.90
2023-04-19T04:33:55.369Z,11.90
2023-04-19T04:36:30.990Z,11.90
2023-04-19T04:39:01.959Z,11.90
2023-04-19T04:41:31.526Z,11.90
2023-04-19T04:44:23.088Z,11.90
2023-04-19T04:46:48.411Z,11.90
2023-04-19T04:49:16.471Z,11.90
2023-04-19T04:51:45.785Z,11.90
2023-04-19T04:54:13.891Z,11.90
2023-04-19T04:56:42.007Z,11.90
2023-04-19T04:59:10.001Z,11.90
2023-04-19T05:01:38.036Z,11.90
2023-04-19T05:04:06.595Z,11.90
2023-04-19T05:06:34.571Z,11.90
2023-04-19T05:09:04.132Z,11.90
2023-04-19T05:11:32.360Z,11.90
2023-04-19T05:14:00.837Z,11.90
2023-04-19T05:16:29.187Z,11.90
2023-04-19T05:18:57.285Z,11.90
2023-04-19T05:21:25.782Z,11.90
2023-04-19T05:23:54.505Z,11.90
2023-04-19T05:26:23.845Z,12.00
2023-04-19T05:28:52.115Z,12.00
2023-04-19T05:31:20.877Z,12.00
2023-04-19T05:33:49.028Z,12.00
2023-04-19T05:36:16.988Z,12.00
2023-04-19T05:38:45.798Z,12.00
2023-04-19T05:41:16.856Z,12.00
2023-04-19T05:43:46.219Z,12.00
2023-04-19T05:46:14.421Z,12.00
2023-04-19T05:48:42.444Z,12.00
2023-04-19T05:51:10.443Z,12.00
2023-04-19T05:53:38.460Z,12.00
2023-04-19T05:56:07.067Z,12.00
2023-04-19T05:58:35.041Z,12.00
2023-04-19T06:01:06.143Z,12.00
2023-04-19T06:03:34.709Z,12.00
2023-04-19T06:06:03.041Z,12.10
2023-04-19T06:08:31.659Z,12.00
2023-04-19T06:11:08.125Z,12.00
2023-04-19T06:13:45.046Z,12.00
2023-04-19T06:16:14.534Z,12.00
2023-04-19T06:18:43.264Z,12.00
2023-04-19T06:21:11.281Z,12.00
2023-04-19T06:23:39.391Z,12.00
2023-04-19T06:26:07.400Z,12.00
2023-04-19T06:28:35.611Z,11.90
2023-04-19T06:31:04.026Z,11.90
2023-04-19T06:33:33.384Z,11.90
2023-04-19T06:36:01.479Z,12.00
2023-04-19T06:38:30.473Z,12.00
2023-04-19T06:40:58.618Z,11.90
2023-04-19T06:43:26.941Z,12.00
2023-04-19T06:46:01.834Z,11.90
2023-04-19T06:48:30.243Z,12.00
2023-04-19T06:50:59.657Z,11.90
2023-04-19T06:53:27.895Z,11.90
2023-04-19T06:56:00.193Z,11.90
2023-04-19T06:58:28.835Z,11.90
2023-04-19T07:00:57.083Z,11.90
2023-04-19T07:03:25.375Z,11.90
2023-04-19T07:05:56.467Z,12.00
2023-04-19T07:08:32.287Z,12.00
2023-04-19T07:11:03.420Z,12.00
2023-04-19T07:13:31.597Z,12.00
2023-04-19T07:15:59.816Z,12.00
2023-04-19T07:18:27.974Z,12.00
2023-04-19T07:20:56.183Z,12.00
2023-04-19T07:23:25.639Z,12.00
2023-04-19T07:25:53.849Z,12.00
2023-04-19T07:28:21.973Z,12.10
2023-04-19T07:30:50.292Z,12.10
2023-04-19T07:33:18.335Z,12.10
2023-04-19T07:35:46.521Z,12.10
2023-04-19T07:38:14.886Z,12.10
2023-04-19T07:40:44.238Z,12.10
2023-04-19T07:43:12.464Z,12.10
2023-04-19T07:45:40.983Z,12.10
2023-04-19T07:48:09.090Z,12.20
2023-04-19T07:50:38.046Z,12.10
2023-04-19T07:53:06.412Z,12.20
2023-04-19T07:55:34.482Z,12.20
2023-04-19T07:58:03.868Z,12.30
2023-04-19T08:00:34.769Z,12.30
2023-04-19T08:03:03.860Z,12.30
2023-04-19T08:05:32.172Z,12.30
2023-04-19T08:08:00.269Z,12.40
2023-04-19T08:10:30.398Z,12.50
2023-04-19T08:13:05.856Z,12.50
2023-04-19T08:18:07.545Z,12.50
2023-04-19T08:20:36.760Z,12.60
2023-04-19T08:23:18.003Z,12.60
2023-04-19T08:25:49.366Z,12.60
2023-04-19T08:28:18.141Z,12.70
2023-04-19T08:30:47.708Z,12.70
2023-04-19T08:33:15.993Z,12.70
2023-04-19T08:35:45.486Z,12.70
2023-04-19T08:38:13.781Z,12.80
2023-04-19T08:40:46.754Z,12.80
2023-04-19T08:43:16.292Z,12.80
2023-04-19T08:45:46.999Z,12.80
2023-04-19T08:48:17.859Z,12.90
2023-04-19T08:51:03.368Z,12.80
2023-04-19T08:53:32.343Z,12.90
2023-04-19T09:01:06.221Z,13.10
2023-04-19T09:03:47.339Z,13.20
2023-04-19T09:06:24.342Z,13.10
2023-04-19T09:08:58.273Z,13.20
2023-04-19T09:11:38.611Z,13.20
2023-04-19T09:14:10.763Z,13.20
2023-04-19T09:16:39.304Z,13.20
2023-04-19T09:19:19.965Z,13.20
2023-04-19T09:21:54.732Z,13.30
2023-04-19T09:25:14.428Z,13.30
2023-04-19T09:27:29.466Z,13.30
2023-04-19T09:29:58.937Z,13.40
2023-04-19T09:32:27.581Z,13.40
2023-04-19T09:34:58.675Z,13.50
2023-04-19T09:37:51.339Z,13.50
2023-04-19T09:40:25.794Z,13.50
2023-04-19T09:48:07.624Z,13.60
2023-04-19T09:50:50.405Z,13.60
2023-04-19T09:53:23.537Z,13.60
2023-04-19T09:56:01.415Z,13.60
2023-04-19T09:58:42.587Z,13.60
2023-04-19T10:01:18.593Z,13.70
2023-04-19T10:03:50.427Z,13.70
2023-04-19T10:08:54.547Z,13.80
2023-04-19T10:11:23.630Z,13.80
2023-04-19T10:13:57.173Z,13.80
2023-04-19T10:16:26.585Z,13.80
2023-04-19T10:18:55.661Z,13.80
2023-04-19T10:21:27.373Z,13.90
2023-04-19T10:23:55.958Z,13.80
2023-04-19T10:26:27.013Z,13.90
2023-04-19T10:28:57.027Z,13.90
2023-04-19T10:31:27.292Z,13.90
2023-04-19T10:33:55.819Z,13.90
2023-04-19T10:36:30.019Z,13.90
2023-04-19T10:38:58.085Z,13.90
2023-04-19T10:41:58.563Z,14.00
2023-04-19T10:44:26.618Z,14.00
2023-04-19T10:46:54.896Z,14.00
2023-04-19T10:49:24.998Z,14.00
2023-04-19T10:51:54.815Z,14.10
2023-04-19T10:54:34.539Z,14.10
2023-04-19T10:57:04.625Z,14.10
2023-04-19T10:59:34.194Z,14.20
2023-04-19T11:02:03.893Z,14.20
2023-04-19T11:05:04.246Z,14.20
2023-04-19T11:07:43.558Z,14.20
2023-04-19T11:10:12.969Z,14.20
2023-04-19T11:12:47.279Z,14.20
2023-04-19T11:15:15.299Z,14.20
2023-04-19T11:17:43.525Z,14.30
2023-04-19T11:20:13.519Z,14.30
2023-04-19T11:22:44.311Z,14.30
2023-04-19T11:25:13.904Z,14.40
2023-04-19T11:27:42.946Z,14.40
2023-04-19T11:30:12.733Z,14.40
2023-04-19T11:32:49.124Z,14.50
2023-04-19T11:35:20.729Z,14.50
2023-04-19T11:37:50.382Z,14.50
2023-04-19T11:40:19.951Z,14.50
2023-04-19T11:42:48.432Z,14.50
2023-04-19T11:45:31.178Z,14.50
2023-04-19T11:48:02.016Z,14.60
2023-04-19T11:50:35.734Z,14.60
2023-04-19T11:53:18.881Z,14.60
2023-04-19T11:55:48.335Z,14.70
2023-04-19T11:58:29.086Z,14.80
2023-04-19T12:00:58.507Z,14.80
2023-04-19T12:03:27.150Z,14.90
2023-04-19T12:06:00.169Z,14.90
2023-04-19T12:08:34.520Z,14.90
2023-04-19T12:11:04.110Z,15.00
2023-04-19T12:13:32.884Z,15.00
2023-04-19T12:16:01.794Z,15.10
2023-04-19T12:18:43.216Z,15.10
2023-04-19T12:21:12.018Z,15.10
2023-04-19T12:23:41.440Z,15.20
2023-04-19T12:26:09.479Z,15.20
2023-04-19T12:28:37.474Z,15.20
2023-04-19T12:31:06.075Z,15.30
2023-04-19T12:33:34.089Z,15.30
2023-04-19T12:36:02.009Z,15.30
2023-04-19T12:38:29.956Z,15.30
2023-04-19T12:40:59.482Z,15.30
2023-04-19T12:43:27.533Z,15.30
2023-04-19T12:45:55.516Z,15.40
2023-04-19T12:48:23.589Z,15.50
2023-04-19T12:50:51.790Z,15.50
2023-04-19T12:53:19.972Z,15.50
2023-04-19T12:55:51.547Z,15.60
2023-04-19T12:58:21.785Z,15.50
2023-04-19T13:00:50.601Z,15.60
2023-04-19T13:03:18.839Z,15.60
2023-04-19T13:05:47.253Z,15.70
2023-04-19T13:08:15.282Z,15.70
2023-04-19T13:10:43.523Z,15.70
2023-04-19T13:13:11.622Z,15.90
2023-04-19T13:15:42.102Z,16.00
2023-04-19T13:18:10.418Z,16.20
2023-04-19T13:20:38.559Z,16.30
2023-04-19T13:23:06.694Z,16.50
2023-04-19T13:25:34.645Z,16.70
2023-04-19T13:28:02.724Z,16.80
2023-04-19T13:30:30.768Z,16.90
2023-04-19T13:33:01.062Z,17.10
2023-04-19T13:35:29.148Z,17.20
2023-04-19T13:37:57.104Z,17.30
2023-04-19T13:40:25.284Z,17.40
2023-04-19T13:42:54.313Z,17.50
2023-04-19T13:45:22.594Z,17.50
2023-04-19T13:47:50.629Z,17.60
2023-04-19T13:50:20.932Z,17.70
2023-04-19T13:52:48.993Z,17.70
2023-04-19T13:55:17.102Z,17.80
2023-04-19T13:57:45.100Z,17.90
2023-04-19T14:00:14.024Z,18.00
2023-04-19T14:02:43.553Z,18.10
2023-04-19T14:05:11.856Z,18.20
2023-04-19T14:07:42.147Z,18.30
2023-04-19T14:10:11.395Z,18.50
2023-04-19T14:12:39.437Z,18.60
2023-04-19T14:15:08.519Z,18.70
2023-04-19T14:17:37.429Z,18.80
2023-04-19T14:20:07.492Z,19.00
2023-04-19T14:22:36.164Z,19.00
2023-04-19T14:25:06.314Z,19.20
2023-04-19T14:27:34.624Z,19.30
2023-04-19T14:30:03.083Z,19.30
2023-04-19T14:32:31.408Z,19.40
2023-04-19T14:34:59.603Z,19.50
2023-04-19T14:37:27.688Z,19.70
2023-04-19T14:39:55.671Z,19.70
2023-04-19T14:42:25.015Z,19.80
2023-04-19T14:44:53.327Z,19.90
2023-04-19T14:53:12.679Z,20.10
2023-04-19T14:55:40.858Z,20.20
2023-04-19T14:58:10.365Z,20.30
2023-04-19T15:00:38.541Z,20.40
2023-04-19T15:03:07.125Z,20.40
2023-04-19T15:05:37.200Z,20.50
2023-04-19T15:08:05.500Z,20.50
2023-04-19T15:10:34.236Z,20.60
2023-04-19T15:13:03.304Z,20.70
2023-04-19T15:15:32.890Z,20.70
2023-04-19T15:18:01.788Z,20.70
2023-04-19T15:20:29.927Z,20.80
2023-04-19T15:23:00.219Z,20.90
2023-04-19T15:25:28.700Z,21.00
2023-04-19T15:27:56.715Z,21.00
2023-04-19T15:30:24.676Z,21.00
2023-04-19T15:32:54.386Z,21.10
2023-04-19T15:35:22.835Z,21.20
2023-04-19T15:37:50.865Z,21.20
2023-04-19T15:40:19.000Z,21.20
2023-04-19T15:42:47.439Z,21.20
2023-04-19T15:45:15.683Z,21.20
2023-04-19T15:47:54.684Z,21.20
2023-04-19T15:50:23.430Z,21.20
2023-04-19T15:52:51.708Z,21.20
2023-04-19T15:55:19.840Z,21.20
2023-04-19T15:57:49.747Z,21.20
2023-04-19T16:00:18.989Z,21.20
2023-04-19T16:02:48.079Z,21.20
2023-04-19T16:05:17.591Z,21.20
2023-04-19T16:07:45.965Z,21.10
2023-04-19T16:10:14.771Z,21.00
2023-04-19T16:12:44.212Z,20.90
2023-04-19T16:15:13.458Z,20.80
2023-04-19T16:17:41.441Z,20.80
2023-04-19T16:20:10.675Z,20.80
2023-04-19T16:22:40.421Z,20.70
2023-04-19T16:25:11.035Z,20.70
2023-04-19T16:27:42.357Z,20.60
2023-04-19T16:30:11.656Z,20.60
2023-04-19T16:32:39.699Z,20.50
2023-04-19T16:35:08.941Z,20.50
2023-04-19T16:37:37.025Z,20.50
2023-04-19T16:40:09.101Z,20.30
2023-04-19T16:42:37.849Z,20.10
2023-04-19T16:45:08.748Z,20.10
2023-04-19T16:47:37.403Z,20.10
2023-04-19T16:50:06.943Z,20.20
2023-04-19T16:52:36.309Z,20.20
2023-04-19T16:55:04.545Z,20.30
2023-04-19T16:57:34.304Z,20.40
2023-04-19T17:00:02.878Z,20.50
2023-04-19T17:02:30.943Z,20.50
2023-04-19T17:04:59.274Z,20.40
2023-04-19T17:07:27.541Z,20.20
2023-04-19T17:09:56.305Z,19.90
2023-04-19T17:12:24.600Z,19.60
2023-04-19T17:14:53.964Z,19.20
2023-04-19T17:17:22.014Z,18.90
2023-04-19T17:19:50.008Z,18.60
2023-04-19T17:22:18.185Z,18.30
2023-04-19T17:24:46.501Z,18.20
2023-04-19T17:27:14.640Z,17.80
2023-04-19T17:29:42.810Z,17.60
2023-04-19T17:32:12.715Z,17.50
2023-04-19T17:34:40.698Z,17.30
2023-04-19T17:37:08.710Z,17.10
2023-04-19T17:39:37.065Z,16.90
2023-04-19T17:42:05.175Z,16.80
2023-04-19T17:44:33.159Z,16.70
2023-04-19T17:47:01.753Z,16.60
2023-04-19T17:49:31.147Z,16.40
2023-04-19T17:51:59.201Z,16.30
2023-04-19T17:54:27.265Z,16.20
2023-04-19T17:56:59.300Z,16.20
2023-04-19T17:59:27.518Z,16.10
2023-04-19T18:01:56.763Z,16.00
2023-04-19T18:04:25.357Z,15.90
2023-04-19T18:06:54.825Z,15.80
2023-04-19T18:09:22.765Z,15.80
2023-04-19T18:11:50.893Z,15.70
2023-04-19T18:14:18.897Z,15.60
2023-04-19T18:16:47.082Z,15.60
2023-04-19T18:19:15.734Z,15.60
2023-04-19T18:21:43.885Z,15.50
2023-04-19T18:24:13.332Z,15.50
2023-04-19T18:26:42.485Z,15.40
2023-04-19T18:29:10.844Z,15.40
2023-04-19T18:31:39.002Z,15.30
2023-04-19T18:34:07.154Z,15.30
2023-04-19T18:36:35.333Z,15.20
2023-04-19T18:39:03.507Z,15.20
2023-04-19T18:41:32.936Z,15.10
2023-04-19T18:44:29.643Z,15.10
2023-04-19T18:46:53.960Z,15.00
2023-04-19T18:49:22.502Z,15.00
2023-04-19T18:51:51.441Z,14.90
2023-04-19T18:54:20.340Z,14.90
2023-04-19T18:57:20.992Z,14.80
2023-04-19T18:59:38.151Z,14.70
2023-04-19T19:02:06.276Z,14.70
2023-04-19T19:07:18.269Z,14.60
2023-04-19T19:09:56.725Z,14.60
2023-04-19T19:12:26.895Z,14.50
2023-04-19T19:14:54.929Z,14.50
2023-04-19T19:17:24.484Z,14.50
2023-04-19T19:19:52.561Z,14.50
2023-04-19T19:22:27.704Z,14.40
2023-04-19T19:24:57.401Z,14.40
2023-04-19T19:27:27.531Z,14.30
2023-04-19T19:29:56.019Z,14.30
2023-04-19T19:32:24.646Z,14.30
2023-04-19T19:35:00.496Z,14.30
2023-04-19T19:37:30.557Z,14.20
2023-04-19T19:40:04.320Z,14.20
2023-04-19T19:42:36.053Z,14.10
2023-04-19T19:45:04.989Z,14.10
2023-04-19T19:47:35.539Z,14.10
2023-04-19T19:50:46.101Z,14.00
2023-04-19T19:53:04.882Z,14.00
2023-04-19T19:55:41.784Z,14.00
2023-04-19T19:58:35.429Z,14.00
2023-04-19T20:03:37.359Z,13.90
2023-04-19T20:07:02.939Z,13.90
2023-04-19T20:09:00.687Z,13.90
2023-04-19T20:11:31.734Z,13.90
2023-04-19T20:14:14.425Z,13.90
2023-04-19T20:16:44.689Z,13.80
2023-04-19T20:19:14.737Z,13.80
2023-04-19T20:21:49.725Z,13.80
2023-04-19T20:24:18.928Z,13.80
2023-04-19T20:26:50.279Z,13.80
2023-04-19T20:29:20.771Z,13.70
2023-04-19T20:31:49.645Z,13.70
2023-04-19T20:34:18.609Z,13.70
2023-04-19T20:36:54.570Z,13.70
2023-04-19T20:39:22.580Z,13.70
2023-04-19T20:41:51.367Z,13.60
2023-04-19T20:44:23.195Z,13.60
2023-04-19T20:46:52.115Z,13.60
2023-04-19T20:49:24.119Z,13.60
2023-04-19T20:51:56.769Z,13.50
2023-04-19T20:54:48.794Z,13.50
2023-04-19T20:57:19.825Z,13.50
2023-04-19T20:59:50.619Z,13.50
2023-04-19T21:02:18.857Z,13.50
2023-04-19T21:04:49.574Z,13.50
2023-04-19T21:07:18.742Z,13.50
2023-04-19T21:10:12.692Z,13.40
2023-04-19T21:12:42.976Z,13.40
2023-04-19T21:15:13.086Z,13.40
2023-04-19T21:17:42.662Z,13.40
2023-04-19T21:20:21.294Z,13.40
2023-04-19T21:23:09.969Z,13.30
2023-04-19T21:25:38.262Z,13.20
2023-04-19T21:28:06.733Z,13.20
2023-04-19T21:30:39.273Z,13.20
2023-04-19T21:33:30.802Z,13.10
2023-04-19T21:35:58.865Z,13.10
2023-04-19T21:38:27.043Z,13.10
2023-04-19T21:40:57.985Z,13.10
2023-04-19T21:43:28.782Z,13.10
2023-04-19T21:45:58.736Z,13.00
2023-04-19T21:48:26.714Z,13.00
2023-04-19T21:50:55.021Z,13.00
2023-04-19T21:53:23.562Z,13.00
2023-04-19T21:55:52.788Z,12.90
2023-04-19T21:58:20.812Z,12.90
2023-04-19T22:00:49.793Z,12.90
2023-04-19T22:03:19.354Z,12.90
2023-04-19T22:05:50.045Z,12.80
2023-04-19T22:08:18.686Z,12.80
2023-04-19T22:10:47.170Z,12.80
2023-04-19T22:13:17.629Z,12.80
2023-04-19T22:16:06.345Z,12.80
2023-04-19T22:18:36.877Z,12.70
2023-04-19T22:21:05.838Z,12.70
2023-04-19T22:23:34.373Z,12.70
2023-04-19T22:26:02.857Z,12.70
2023-04-19T22:28:31.527Z,12.70
2023-04-19T22:30:59.584Z,12.60
2023-04-19T22:33:30.507Z,12.60
2023-04-19T22:36:00.232Z,12.60
2023-04-19T22:38:28.833Z,12.60
2023-04-19T22:40:57.471Z,12.60
2023-04-19T22:43:25.839Z,12.50
2023-04-19T22:45:55.378Z,12.50
2023-04-19T22:48:23.519Z,12.50
2023-04-19T22:50:53.550Z,12.50
2023-04-19T22:53:23.868Z,12.40
2023-04-19T22:55:53.275Z,12.40
2023-04-19T22:58:25.278Z,12.40
2023-04-19T23:00:53.748Z,12.40
2023-04-19T23:03:22.558Z,12.40
2023-04-19T23:05:55.981Z,12.30
2023-04-19T23:08:28.724Z,12.30
2023-04-19T23:10:56.810Z,12.30
2023-04-19T23:13:26.143Z,12.30
2023-04-19T23:15:56.725Z,12.30
2023-04-19T23:18:25.137Z,12.30
2023-04-19T23:20:53.472Z,12.20
2023-04-19T23:23:22.024Z,12.20
2023-04-19T23:25:51.701Z,12.20
2023-04-19T23:28:24.688Z,12.20
2023-04-19T23:30:55.531Z,12.10
2023-04-19T23:33:26.924Z,12.10
2023-04-19T23:35:55.469Z,12.10
2023-04-19T23:38:26.162Z,12.10
2023-04-19T23:40:55.845Z,12.10
2023-04-19T23:43:24.081Z,12.00
2023-04-19T23:45:52.202Z,12.00
2023-04-19T23:48:23.896Z,12.00
2023-04-19T23:50:52.439Z,11.90
2023-04-19T23:53:21.792Z,11.90
2023-04-19T23:55:50.889Z,11.80
2023-04-19T23:58:22.613Z,11.80
